createdAt,value
2023-01-09T00:54:36.759Z,0.50
2023-01-09T00:55:37.621Z,0.50
2023-01-09T00:56:37.606Z,0.50
2023-01-09T00:57:37.585Z,0.50
2023-01-09T00:58:37.624Z,0.50
2023-01-09T00:59:37.540Z,0.50
2023-01-09T01:00:37.528Z,0.40
2023-01-09T01:01:37.596Z,0.36
2023-01-09T01:02:37.487Z,0.35
2023-01-09T01:03:37.452Z,0.35
2023-01-09T01:04:37.437Z,0.37
2023-01-09T01:05:37.412Z,0.41
2023-01-09T01:06:37.440Z,0.46
2023-01-09T01:07:37.360Z,0.50
2023-01-09T01:08:37.335Z,0.50
2023-01-09T01:09:37.314Z,0.50
2023-01-09T01:10:37.308Z,0.50
2023-01-09T01:11:37.320Z,0.50
2023-01-09T01:12:37.242Z,0.50
2023-01-09T01:13:37.240Z,0.50
2023-01-09T01:14:37.198Z,0.51
2023-01-09T01:15:37.168Z,0.50
2023-01-09T01:16:37.231Z,0.50
2023-01-09T01:17:37.125Z,0.51
2023-01-09T01:18:37.102Z,0.50
2023-01-09T01:19:37.119Z,0.51
2023-01-09T01:20:37.053Z,0.50
2023-01-09T01:21:37.033Z,0.51
2023-01-09T01:22:37.043Z,0.51
2023-01-09T01:23:36.980Z,0.51
2023-01-09T01:24:36.966Z,0.50
2023-01-09T01:25:36.943Z,0.50
2023-01-09T01:26:36.960Z,0.51
2023-01-09T01:27:36.929Z,0.50
2023-01-09T01:28:36.907Z,0.51
2023-01-09T01:29:36.891Z,0.51
2023-01-09T01:30:36.898Z,0.50
2023-01-09T01:31:36.834Z,0.52
2023-01-09T01:32:36.812Z,0.50
2023-01-09T01:33:36.806Z,0.50
2023-01-09T01:34:36.805Z,0.52
2023-01-09T01:35:36.778Z,0.51
2023-01-09T01:36:36.736Z,0.50
2023-01-09T01:37:36.718Z,0.51
2023-01-09T01:38:36.698Z,0.50
2023-01-09T01:39:36.657Z,0.51
2023-01-09T01:40:36.633Z,0.50
2023-01-09T01:41:36.610Z,0.50
2023-01-09T01:42:36.684Z,0.50
2023-01-09T01:43:36.570Z,0.51
2023-01-09T01:44:36.550Z,0.52
2023-01-09T01:45:36.561Z,0.51
2023-01-09T01:46:36.525Z,0.51
2023-01-09T01:47:36.489Z,0.52
2023-01-09T01:48:36.468Z,0.52
2023-01-09T01:49:36.448Z,0.50
2023-01-09T01:50:36.420Z,0.52
2023-01-09T01:51:36.393Z,0.51
2023-01-09T01:52:36.370Z,0.51
2023-01-09T01:53:36.364Z,0.50
2023-01-09T01:54:36.328Z,0.50
2023-01-09T01:55:36.321Z,0.51
2023-01-09T01:56:36.285Z,0.50
2023-01-09T01:57:36.273Z,0.51
2023-01-09T01:58:36.373Z,0.51
2023-01-09T01:59:36.224Z,0.51
2023-01-09T02:00:36.204Z,0.52
2023-01-09T02:01:36.311Z,0.52
2023-01-09T02:02:36.212Z,0.51
2023-01-09T02:03:36.151Z,0.52
2023-01-09T02:04:36.124Z,0.51
2023-01-09T02:05:36.101Z,0.51
2023-01-09T02:06:36.073Z,0.51
2023-01-09T02:07:36.057Z,0.51
2023-01-09T02:08:36.052Z,0.51
2023-01-09T02:09:36.008Z,0.51
2023-01-09T02:10:35.992Z,0.51
2023-01-09T02:11:35.969Z,0.51
2023-01-09T02:12:35.950Z,0.51
2023-01-09T02:13:35.968Z,0.51
2023-01-09T02:14:35.938Z,0.51
2023-01-09T02:15:35.886Z,0.51
2023-01-09T02:16:35.863Z,0.51
2023-01-09T02:17:35.854Z,0.51
2023-01-09T02:18:35.830Z,0.51
2023-01-09T02:19:35.800Z,0.51
2023-01-09T02:20:35.787Z,0.50
2023-01-09T02:21:35.777Z,0.51
2023-01-09T02:22:35.747Z,0.51
2023-01-09T02:23:35.755Z,0.51
2023-01-09T02:24:35.707Z,0.51
2023-01-09T02:25:35.677Z,0.51
2023-01-09T02:26:35.658Z,0.51
2023-01-09T02:27:35.633Z,0.50
2023-01-09T02:28:35.647Z,0.51
2023-01-09T02:29:35.588Z,0.51
2023-01-09T02:30:35.594Z,0.51
2023-01-09T02:31:35.597Z,0.51
2023-01-09T02:32:35.533Z,0.51
2023-01-09T02:33:35.522Z,0.51
2023-01-09T02:34:35.489Z,0.51
2023-01-09T02:35:35.470Z,0.51
2023-01-09T02:36:35.459Z,0.51
2023-01-09T02:37:35.440Z,0.51
2023-01-09T02:38:35.420Z,0.51
2023-01-09T02:39:35.405Z,0.51
2023-01-09T02:40:35.401Z,0.51
2023-01-09T02:41:35.375Z,0.51
2023-01-09T02:42:35.351Z,0.52
2023-01-09T02:43:35.333Z,0.51
2023-01-09T02:44:35.320Z,0.52
2023-01-09T02:45:35.342Z,0.51
2023-01-09T02:46:35.304Z,0.52
2023-01-09T02:47:35.893Z,0.52
2023-01-09T02:48:35.250Z,0.51
2023-01-09T02:49:35.242Z,0.51
2023-01-09T02:50:35.217Z,0.52
2023-01-09T02:51:35.183Z,0.52
2023-01-09T02:52:35.166Z,0.52
2023-01-09T02:53:35.156Z,0.52
2023-01-09T02:54:35.135Z,0.52
2023-01-09T02:55:35.129Z,0.51
2023-01-09T02:56:35.107Z,0.52
2023-01-09T02:57:35.081Z,0.52
2023-01-09T02:58:35.065Z,0.51
2023-01-09T02:59:35.048Z,0.52
2023-01-09T03:00:35.029Z,0.51
2023-01-09T03:01:35.153Z,0.51
2023-01-09T03:02:35.039Z,0.52
2023-01-09T03:03:34.963Z,0.51
2023-01-09T03:04:34.937Z,0.52
2023-01-09T03:05:34.913Z,0.52
2023-01-09T03:06:34.896Z,0.51
2023-01-09T03:07:34.908Z,0.52
2023-01-09T03:08:34.854Z,0.51
2023-01-09T03:09:34.834Z,0.52
2023-01-09T03:10:34.811Z,0.52
2023-01-09T03:11:34.789Z,0.51
2023-01-09T03:12:34.767Z,0.51
2023-01-09T03:13:34.749Z,0.51
2023-01-09T03:14:34.727Z,0.51
2023-01-09T03:15:34.729Z,0.51
2023-01-09T03:16:34.690Z,0.51
2023-01-09T03:17:34.660Z,0.51
2023-01-09T03:18:34.761Z,0.51
2023-01-09T03:19:34.616Z,0.51
2023-01-09T03:20:34.582Z,0.52
2023-01-09T03:21:34.557Z,0.52
2023-01-09T03:22:34.530Z,0.53
2023-01-09T03:23:34.512Z,0.52
2023-01-09T03:24:34.486Z,0.53
2023-01-09T03:25:34.475Z,0.52
2023-01-09T03:26:34.437Z,0.52
2023-01-09T03:27:34.411Z,0.51
2023-01-09T03:28:34.391Z,0.51
2023-01-09T03:29:34.367Z,0.51
2023-01-09T03:30:34.347Z,0.51
2023-01-09T03:31:34.431Z,0.52
2023-01-09T03:32:34.293Z,0.52
2023-01-09T03:33:34.284Z,0.51
2023-01-09T03:34:34.282Z,0.52
2023-01-09T03:35:34.218Z,0.52
2023-01-09T03:36:34.205Z,0.53
2023-01-09T03:37:34.181Z,0.52
2023-01-09T03:38:34.155Z,0.52
2023-01-09T03:39:34.133Z,0.51
2023-01-09T03:40:34.127Z,0.51
2023-01-09T03:41:34.075Z,0.52
2023-01-09T03:42:34.049Z,0.52
2023-01-09T03:43:34.017Z,0.51
2023-01-09T03:44:34.001Z,0.52
2023-01-09T03:45:34.016Z,0.51
2023-01-09T03:46:33.955Z,0.52
2023-01-09T03:47:33.941Z,0.52
2023-01-09T03:48:33.910Z,0.52
2023-01-09T03:49:33.886Z,0.52
2023-01-09T03:50:33.886Z,0.51
2023-01-09T03:51:33.850Z,0.52
2023-01-09T03:52:33.817Z,0.51
2023-01-09T03:53:33.791Z,0.52
2023-01-09T03:54:33.762Z,0.51
2023-01-09T03:55:33.736Z,0.51
2023-01-09T03:56:33.709Z,0.51
2023-01-09T03:57:33.681Z,0.51
2023-01-09T03:58:33.647Z,0.52
2023-01-09T03:59:33.626Z,0.52
2023-01-09T04:00:33.594Z,0.51
2023-01-09T04:01:33.795Z,0.52
2023-01-09T04:02:33.543Z,0.52
2023-01-09T04:03:33.611Z,0.52
2023-01-09T04:04:33.496Z,0.51
2023-01-09T04:05:33.464Z,0.51
2023-01-09T04:06:33.460Z,0.52
2023-01-09T04:07:33.433Z,0.52
2023-01-09T04:08:33.389Z,0.51
2023-01-09T04:09:33.360Z,0.52
2023-01-09T04:10:33.311Z,0.52
2023-01-09T04:11:33.282Z,0.52
2023-01-09T04:12:33.253Z,0.51
2023-01-09T04:13:33.220Z,0.52
2023-01-09T04:14:33.189Z,0.51
2023-01-09T04:15:33.177Z,0.52
2023-01-09T04:16:33.211Z,0.52
2023-01-09T04:17:33.105Z,0.51
2023-01-09T04:18:33.075Z,0.51
2023-01-09T04:19:33.037Z,0.51
2023-01-09T04:20:33.012Z,0.51
2023-01-09T04:21:32.986Z,0.52
2023-01-09T04:22:32.993Z,0.51
2023-01-09T04:23:32.951Z,0.51
2023-01-09T04:24:32.935Z,0.51
2023-01-09T04:25:32.893Z,0.51
2023-01-09T04:26:33.439Z,0.53
2023-01-09T04:27:32.840Z,0.52
2023-01-09T04:28:32.811Z,0.52
2023-01-09T04:29:32.793Z,0.52
2023-01-09T04:30:32.770Z,0.52
2023-01-09T04:31:32.793Z,0.53
2023-01-09T04:32:32.719Z,0.52
2023-01-09T04:33:32.703Z,0.51
2023-01-09T04:34:32.684Z,0.52
2023-01-09T04:35:32.660Z,0.52
2023-01-09T04:36:32.638Z,0.53
2023-01-09T04:37:32.629Z,0.53
2023-01-09T04:38:32.637Z,0.52
2023-01-09T04:39:32.577Z,0.50
2023-01-09T04:40:32.557Z,0.51
2023-01-09T04:41:32.529Z,0.52
2023-01-09T04:42:32.508Z,0.52
2023-01-09T04:43:32.508Z,0.52
2023-01-09T04:44:32.480Z,0.52
2023-01-09T04:45:32.547Z,0.52
2023-01-09T04:46:32.427Z,0.51
2023-01-09T04:47:32.402Z,0.52
2023-01-09T04:48:32.391Z,0.52
2023-01-09T04:49:32.368Z,0.52
2023-01-09T04:50:32.345Z,0.51
2023-01-09T04:51:32.325Z,0.52
2023-01-09T04:52:32.302Z,0.51
2023-01-09T04:53:32.282Z,0.51
2023-01-09T04:54:32.277Z,0.51
2023-01-09T04:55:32.242Z,0.51
2023-01-09T04:56:32.216Z,0.50
2023-01-09T04:57:32.192Z,0.50
2023-01-09T04:58:32.171Z,0.51
2023-01-09T04:59:32.151Z,0.51
2023-01-09T05:00:32.121Z,0.51
2023-01-09T05:01:32.231Z,0.50
2023-01-09T05:02:32.083Z,0.52
2023-01-09T05:03:32.045Z,0.51
2023-01-09T05:04:32.120Z,0.52
2023-01-09T05:05:32.010Z,0.51
2023-01-09T05:06:31.987Z,0.51
2023-01-09T05:07:31.975Z,0.51
2023-01-09T05:08:31.944Z,0.51
2023-01-09T05:09:31.930Z,0.51
2023-01-09T05:10:31.930Z,0.50
2023-01-09T05:11:31.877Z,0.51
2023-01-09T05:12:31.857Z,0.52
2023-01-09T05:13:31.843Z,0.51
2023-01-09T05:14:31.812Z,0.52
2023-01-09T05:15:31.792Z,0.51
2023-01-09T05:16:31.800Z,0.51
2023-01-09T05:17:31.737Z,0.51
2023-01-09T05:18:31.722Z,0.51
2023-01-09T05:19:31.707Z,0.51
2023-01-09T05:20:31.672Z,0.51
2023-01-09T05:21:31.641Z,0.51
2023-01-09T05:22:31.619Z,0.52
2023-01-09T05:23:31.597Z,0.51
2023-01-09T05:24:31.596Z,0.51
2023-01-09T05:25:31.548Z,0.51
2023-01-09T05:26:31.553Z,0.52
2023-01-09T05:27:31.506Z,0.52
2023-01-09T05:28:31.486Z,0.52
2023-01-09T05:29:31.470Z,0.52
2023-01-09T05:30:31.447Z,0.52
2023-01-09T05:31:31.469Z,0.51
2023-01-09T05:32:31.399Z,0.52
2023-01-09T05:33:31.389Z,0.51
2023-01-09T05:34:31.352Z,0.51
2023-01-09T05:35:31.336Z,0.52
2023-01-09T05:36:31.320Z,0.51
2023-01-09T05:37:31.285Z,0.52
2023-01-09T05:38:31.253Z,0.52
2023-01-09T05:39:31.253Z,0.51
2023-01-09T05:40:39.643Z,0.51
2023-01-09T05:41:31.242Z,0.51
2023-01-09T05:42:31.204Z,0.52
2023-01-09T05:43:31.167Z,0.51
2023-01-09T05:44:31.145Z,0.52
2023-01-09T05:45:31.220Z,0.52
2023-01-09T05:46:31.086Z,0.51
2023-01-09T05:47:31.067Z,0.52
2023-01-09T05:48:31.041Z,0.51
2023-01-09T05:49:31.026Z,0.51
2023-01-09T05:50:31.001Z,0.52
2023-01-09T05:51:30.983Z,0.51
2023-01-09T05:52:30.980Z,0.51
2023-01-09T05:53:30.927Z,0.51
2023-01-09T05:54:30.903Z,0.51
2023-01-09T05:55:30.874Z,0.51
2023-01-09T05:56:30.868Z,0.51
2023-01-09T05:58:30.839Z,0.51
2023-01-09T05:59:30.789Z,0.51
2023-01-09T06:00:30.770Z,0.52
2023-01-09T06:01:30.806Z,0.51
2023-01-09T06:02:30.869Z,0.52
2023-01-09T06:03:30.700Z,0.52
2023-01-09T06:04:30.998Z,0.52
2023-01-09T06:05:30.647Z,0.52
2023-01-09T06:06:30.626Z,0.51
2023-01-09T06:07:30.607Z,0.51
2023-01-09T06:08:30.591Z,0.52
2023-01-09T06:09:30.573Z,0.51
2023-01-09T06:10:30.552Z,0.51
2023-01-09T06:11:30.535Z,0.51
2023-01-09T06:12:30.518Z,0.52
2023-01-09T06:13:30.496Z,0.52
2023-01-09T06:14:30.497Z,0.53
2023-01-09T06:15:30.456Z,0.52
2023-01-09T06:16:30.444Z,0.51
2023-01-09T06:18:30.420Z,0.51
2023-01-09T06:19:30.399Z,0.51
2023-01-09T06:20:31.371Z,0.52
2023-01-09T06:21:30.483Z,0.52
2023-01-09T06:22:30.996Z,0.51
2023-01-09T06:23:30.321Z,0.52
2023-01-09T06:24:30.292Z,0.52
2023-01-09T06:25:30.265Z,0.53
2023-01-09T06:26:30.488Z,0.52
2023-01-09T06:27:30.229Z,0.52
2023-01-09T06:28:30.227Z,0.53
2023-01-09T06:29:30.210Z,0.53
2023-01-09T06:30:30.246Z,0.53
2023-01-09T06:31:30.268Z,0.53
2023-01-09T06:32:30.255Z,0.53
2023-01-09T06:33:30.339Z,0.53
2023-01-09T06:34:30.491Z,0.54
2023-01-09T06:35:30.098Z,0.53
2023-01-09T06:36:30.071Z,0.53
2023-01-09T06:37:30.048Z,0.54
2023-01-09T06:38:30.034Z,0.53
2023-01-09T06:40:30.000Z,0.54
2023-01-09T06:41:29.991Z,0.52
2023-01-09T06:42:29.970Z,0.54
2023-01-09T06:43:29.956Z,0.55
2023-01-09T06:44:29.989Z,0.55
2023-01-09T06:45:29.916Z,0.54
2023-01-09T06:46:29.958Z,0.56
2023-01-09T06:47:29.904Z,0.57
2023-01-09T06:48:30.003Z,0.58
2023-01-09T06:49:29.836Z,0.58
2023-01-09T06:50:29.810Z,0.57
2023-01-09T06:51:29.786Z,0.57
2023-01-09T06:52:29.785Z,0.58
2023-01-09T06:53:30.013Z,0.59
2023-01-09T06:54:29.721Z,0.63
2023-01-09T06:55:29.706Z,0.62
2023-01-09T06:56:29.686Z,0.65
2023-01-09T06:57:29.685Z,0.65
2023-01-09T06:58:30.009Z,0.62
2023-01-09T06:59:29.621Z,0.63
2023-01-09T07:00:29.593Z,0.62
2023-01-09T07:01:29.734Z,0.63
2023-01-09T07:02:29.584Z,0.64
2023-01-09T07:03:31.452Z,0.64
2023-01-09T07:04:29.524Z,0.66
2023-01-09T07:05:29.481Z,0.65
2023-01-09T07:06:29.461Z,0.65
2023-01-09T07:07:29.440Z,0.64
2023-01-09T07:08:29.503Z,0.65
2023-01-09T07:09:29.396Z,0.65
2023-01-09T07:10:29.381Z,0.64
2023-01-09T07:11:29.357Z,0.66
2023-01-09T07:12:29.362Z,0.65
2023-01-09T07:13:29.324Z,0.66
2023-01-09T07:14:29.302Z,0.64
2023-01-09T07:15:29.284Z,0.66
2023-01-09T07:16:29.284Z,0.66
2023-01-09T07:17:29.508Z,0.66
2023-01-09T07:18:29.260Z,0.65
2023-01-09T07:19:29.238Z,0.68
2023-01-09T07:20:29.207Z,0.67
2023-01-09T07:21:30.404Z,0.66
2023-01-09T07:22:29.227Z,0.66
2023-01-09T07:23:29.150Z,0.66
2023-01-09T07:24:29.538Z,0.66
2023-01-09T07:25:29.138Z,0.66
2023-01-09T07:26:29.120Z,0.66
2023-01-09T07:27:29.087Z,0.66
2023-01-09T07:28:29.131Z,0.66
2023-01-09T07:29:29.049Z,0.66
2023-01-09T07:30:29.031Z,0.66
2023-01-09T07:31:29.094Z,0.67
2023-01-09T07:32:29.003Z,0.68
2023-01-09T07:33:28.990Z,0.66
2023-01-09T07:34:29.016Z,0.65
2023-01-09T07:35:28.956Z,0.66
2023-01-09T07:36:28.952Z,0.66
2023-01-09T07:37:28.919Z,0.65
2023-01-09T07:38:29.018Z,0.66
2023-01-09T07:39:28.895Z,0.66
2023-01-09T07:40:28.995Z,0.65
2023-01-09T07:41:28.900Z,0.66
2023-01-09T07:42:28.861Z,0.66
2023-01-09T07:43:29.013Z,0.66
2023-01-09T07:45:28.818Z,0.66
2023-01-09T07:46:29.083Z,0.65
2023-01-09T07:47:28.794Z,0.65
2023-01-09T07:48:29.012Z,0.65
2023-01-09T07:49:29.017Z,0.65
2023-01-09T07:50:28.780Z,0.64
2023-01-09T07:51:28.705Z,0.66
2023-01-09T07:52:29.019Z,0.65
2023-01-09T07:53:28.672Z,0.65
2023-01-09T07:54:28.653Z,0.64
2023-01-09T07:55:28.634Z,0.64
2023-01-09T07:56:28.619Z,0.64
2023-01-09T07:57:28.588Z,0.65
2023-01-09T07:58:28.605Z,0.65
2023-01-09T07:59:28.562Z,0.65
2023-01-09T08:00:29.110Z,0.65
2023-01-09T08:01:28.668Z,0.65
2023-01-09T08:02:28.600Z,0.65
2023-01-09T08:03:28.488Z,0.65
2023-01-09T08:04:28.524Z,0.65
2023-01-09T08:05:28.525Z,0.65
2023-01-09T08:06:28.466Z,0.65
2023-01-09T08:07:28.421Z,0.63
2023-01-09T08:08:28.408Z,0.64
2023-01-09T08:09:28.394Z,0.64
2023-01-09T08:10:28.622Z,0.66
2023-01-09T08:11:28.844Z,0.64
2023-01-09T08:12:28.323Z,0.64
2023-01-09T08:13:28.315Z,0.64
2023-01-09T08:14:28.540Z,0.64
2023-01-09T08:15:28.291Z,0.65
2023-01-09T08:16:28.287Z,0.64
2023-01-09T08:17:28.246Z,0.64
2023-01-09T08:18:28.227Z,0.63
2023-01-09T08:19:28.217Z,0.63
2023-01-09T08:20:28.197Z,0.63
2023-01-09T08:21:28.188Z,0.65
2023-01-09T08:22:28.185Z,0.64
2023-01-09T08:23:28.142Z,0.65
2023-01-09T08:25:28.124Z,0.63
2023-01-09T08:26:28.146Z,0.64
2023-01-09T08:27:28.087Z,0.64
2023-01-09T08:28:28.099Z,0.63
2023-01-09T08:29:28.534Z,0.63
2023-01-09T08:30:28.047Z,0.64
2023-01-09T08:31:28.091Z,0.63
2023-01-09T08:32:28.028Z,0.64
2023-01-09T08:33:27.997Z,0.64
2023-01-09T08:34:28.159Z,0.64
2023-01-09T08:35:27.973Z,0.62
2023-01-09T08:36:27.987Z,0.63
2023-01-09T08:37:27.953Z,0.65
2023-01-09T08:38:27.971Z,0.65
2023-01-09T08:39:28.041Z,0.66
2023-01-09T08:40:27.872Z,1.30
2023-01-09T08:41:27.842Z,2.41
2023-01-09T08:42:27.828Z,2.42
2023-01-09T08:43:27.828Z,1.99
2023-01-09T08:45:27.800Z,1.65
2023-01-09T08:46:27.853Z,1.49
2023-01-09T08:47:27.756Z,1.36
2023-01-09T08:48:27.722Z,1.17
2023-01-09T08:49:27.701Z,1.07
2023-01-09T08:50:28.069Z,1.13
2023-01-09T08:51:27.680Z,1.15
2023-01-09T08:52:27.663Z,1.17
2023-01-09T08:53:27.658Z,1.20
2023-01-09T08:54:28.078Z,1.23
2023-01-09T08:55:28.041Z,1.24
2023-01-09T10:43:24.621Z,2.47
2023-01-09T10:48:31.894Z,2.56
2023-01-09T11:18:23.641Z,2.21
2023-01-09T11:19:23.580Z,2.24
2023-01-09T11:20:23.557Z,2.19
2023-01-09T11:21:23.600Z,2.28
2023-01-09T11:22:23.489Z,2.16
2023-01-09T11:23:23.461Z,2.24
2023-01-09T11:24:23.600Z,2.16
2023-01-09T11:25:23.413Z,2.03
2023-01-09T11:26:23.383Z,1.93
2023-01-09T11:27:23.598Z,1.90
2023-01-09T11:29:23.602Z,1.83
2023-01-09T11:30:23.285Z,1.85
2023-01-09T11:31:23.301Z,1.82
2023-01-09T11:32:23.220Z,1.78
2023-01-09T11:33:23.621Z,1.78
2023-01-09T11:34:23.665Z,1.76
2023-01-09T11:35:23.161Z,1.74
2023-01-09T11:36:23.135Z,1.76
2023-01-09T11:37:23.085Z,1.75
2023-01-09T11:38:23.139Z,1.72
2023-01-09T11:40:23.021Z,1.73
2023-01-09T11:41:22.966Z,1.85
2023-01-09T11:42:23.127Z,1.86
2023-01-09T11:43:22.937Z,1.88
2023-01-09T11:44:22.908Z,1.83
2023-01-09T11:45:22.848Z,1.87
2023-01-09T11:46:22.886Z,1.87
2023-01-09T11:47:23.135Z,1.88
2023-01-09T11:48:22.784Z,1.85
2023-01-09T11:49:22.870Z,1.85
2023-01-09T11:50:23.223Z,1.85
2023-01-09T11:51:22.715Z,1.81
2023-01-09T11:52:22.679Z,1.82
2023-01-09T11:53:23.140Z,1.82
2023-01-09T11:54:22.627Z,1.79
2023-01-09T11:55:25.390Z,1.77
2023-01-09T11:56:22.568Z,1.78
2023-01-09T11:57:22.565Z,1.78
2023-01-09T11:58:22.613Z,1.78
2023-01-09T11:59:22.475Z,1.77
2023-01-09T12:00:22.457Z,1.77
2023-01-09T12:01:22.428Z,1.76
2023-01-09T12:02:22.485Z,1.71
2023-01-09T12:03:22.633Z,1.72
2023-01-09T12:04:22.367Z,1.73
2023-01-09T12:05:22.365Z,1.69
2023-01-09T12:06:22.563Z,1.70
2023-01-09T12:07:22.644Z,1.70
2023-01-09T12:08:22.280Z,1.67
2023-01-09T12:09:22.259Z,1.70
2023-01-09T12:10:22.263Z,1.68
2023-01-09T12:11:22.645Z,1.66
2023-01-09T12:12:22.202Z,1.65
2023-01-09T12:13:22.201Z,1.63
2023-01-09T12:14:22.623Z,1.63
2023-01-09T12:15:22.162Z,1.63
2023-01-09T12:16:22.237Z,1.63
2023-01-09T12:17:22.070Z,1.62
2023-01-09T12:18:22.042Z,1.59
2023-01-09T12:19:22.121Z,1.60
2023-01-09T12:20:22.029Z,1.59
2023-01-09T12:21:21.985Z,1.56
2023-01-09T12:22:21.953Z,1.56
2023-01-09T12:23:21.926Z,1.56
2023-01-09T12:24:22.123Z,1.58
2023-01-09T12:25:21.859Z,1.52
2023-01-09T12:26:21.832Z,1.54
2023-01-09T12:27:21.837Z,1.54
2023-01-09T12:28:21.778Z,1.55
2023-01-09T12:29:22.124Z,1.50
2023-01-09T12:30:21.732Z,1.51
2023-01-09T12:31:21.790Z,1.49
2023-01-09T12:32:21.673Z,1.49
2023-01-09T12:33:22.133Z,1.47
2023-01-09T12:34:21.621Z,1.49
2023-01-09T12:35:21.593Z,1.48
2023-01-09T12:36:21.576Z,1.48
2023-01-09T12:37:21.546Z,1.45
2023-01-09T12:38:22.338Z,1.46
2023-01-09T12:39:21.636Z,1.42
2023-01-09T12:40:21.462Z,1.43
2023-01-09T12:41:21.428Z,1.45
2023-01-09T12:42:21.401Z,1.42
2023-01-09T12:43:21.367Z,1.43
2023-01-09T12:44:34.282Z,1.42
2023-01-09T12:45:21.309Z,1.42
2023-01-09T12:46:21.293Z,1.43
2023-01-09T12:47:21.246Z,1.44
2023-01-09T12:48:21.218Z,1.42
2023-01-09T12:49:21.657Z,1.42
2023-01-09T12:50:21.154Z,1.43
2023-01-09T12:51:21.154Z,1.39
2023-01-09T12:52:21.657Z,1.37
2023-01-09T12:53:21.073Z,1.38
2023-01-09T12:54:21.188Z,1.36
2023-01-09T12:55:21.029Z,1.35
2023-01-09T12:56:20.996Z,1.36
2023-01-09T12:57:20.997Z,1.33
2023-01-09T12:58:21.011Z,1.31
2023-01-09T12:59:21.146Z,1.31
2023-01-09T13:00:20.918Z,1.34
2023-01-09T13:01:20.912Z,1.33
2023-01-09T13:02:20.920Z,1.31
2023-01-09T13:03:20.840Z,1.30
2023-01-09T13:04:21.141Z,1.28
2023-01-09T13:05:20.787Z,1.30
2023-01-09T13:06:20.806Z,1.31
2023-01-09T13:07:20.750Z,1.28
2023-01-09T13:08:20.730Z,1.27
2023-01-09T13:09:21.164Z,1.28
2023-01-09T13:10:20.734Z,1.27
2023-01-09T13:11:21.358Z,1.26
2023-01-09T13:12:20.633Z,1.25
2023-01-09T13:13:20.626Z,1.25
2023-01-09T13:14:20.585Z,1.23
2023-01-09T13:15:20.556Z,1.23
2023-01-09T13:16:20.717Z,1.23
2023-01-09T13:17:20.656Z,1.22
2023-01-09T13:18:20.497Z,1.21
2023-01-09T13:20:20.453Z,1.22
2023-01-09T13:21:20.435Z,1.21
2023-01-09T13:22:20.648Z,1.21
2023-01-09T13:23:20.373Z,1.22
2023-01-09T13:24:20.356Z,1.18
2023-01-09T13:25:20.356Z,1.21
2023-01-09T13:26:20.343Z,1.19
2023-01-09T13:27:20.699Z,1.18
2023-01-09T13:28:20.265Z,1.18
2023-01-09T13:29:20.244Z,1.17
2023-01-09T13:30:20.216Z,1.18
2023-01-09T13:31:20.244Z,1.16
2023-01-09T13:32:20.232Z,1.14
2023-01-09T13:33:20.161Z,1.14
2023-01-09T13:34:22.434Z,1.14
2023-01-09T13:35:20.171Z,1.14
2023-01-09T13:36:20.072Z,1.15
2023-01-09T13:37:20.046Z,1.15
2023-01-09T13:38:20.047Z,1.13
2023-01-09T13:39:19.993Z,1.14
2023-01-09T13:40:20.150Z,1.13
2023-01-09T13:41:19.938Z,1.13
2023-01-09T13:42:19.948Z,1.10
2023-01-09T13:43:19.904Z,1.12
2023-01-09T13:44:19.877Z,1.11
2023-01-09T13:45:20.161Z,1.09
2023-01-09T13:46:19.844Z,1.12
2023-01-09T13:47:19.812Z,1.10
2023-01-09T13:48:19.891Z,1.09
2023-01-09T13:49:19.767Z,1.10
2023-01-09T13:50:19.746Z,1.09
2023-01-09T13:51:19.763Z,1.07
2023-01-09T13:52:19.718Z,1.07
2023-01-09T13:53:20.094Z,1.07
2023-01-09T13:54:19.675Z,1.06
2023-01-09T13:55:19.658Z,1.07
2023-01-09T13:56:21.157Z,1.05
2023-01-09T13:58:19.596Z,1.04
2023-01-09T13:59:19.680Z,1.00
2023-01-09T14:00:19.607Z,0.97
2023-01-09T14:01:19.721Z,0.96
2023-01-09T14:02:19.519Z,0.94
2023-01-09T14:03:19.773Z,0.92
2023-01-09T14:04:19.409Z,0.90
2023-01-09T14:05:19.663Z,0.91
2023-01-09T14:06:19.361Z,0.89
2023-01-09T14:07:19.323Z,0.87
2023-01-09T14:08:19.298Z,0.88
2023-01-09T14:09:19.287Z,0.85
2023-01-09T14:10:19.670Z,0.85
2023-01-09T14:11:19.667Z,0.82
2023-01-09T14:12:19.213Z,0.80
2023-01-09T14:13:19.176Z,0.81
2023-01-09T14:14:19.173Z,0.80
2023-01-09T14:15:19.120Z,0.78
2023-01-09T14:16:19.727Z,0.77
2023-01-09T14:17:19.070Z,0.76
2023-01-09T14:18:19.046Z,0.77
2023-01-09T14:19:19.022Z,0.75
2023-01-09T14:20:19.177Z,0.75
2023-01-09T14:21:19.170Z,0.75
2023-01-09T14:23:35.300Z,0.74
2023-01-09T14:24:19.171Z,0.75
2023-01-09T14:25:18.897Z,0.75
2023-01-09T14:26:19.177Z,0.74
2023-01-09T14:27:18.843Z,0.74
2023-01-09T14:28:18.821Z,0.73
2023-01-09T14:29:18.794Z,0.72
2023-01-09T14:31:18.804Z,0.72
2023-01-09T14:32:18.718Z,0.71
2023-01-09T14:33:19.173Z,0.70
2023-01-09T14:34:24.101Z,0.69
2023-01-09T14:35:18.654Z,0.69
2023-01-09T14:36:18.664Z,0.69
2023-01-09T14:37:18.617Z,0.69
2023-01-09T14:38:18.673Z,0.67
2023-01-09T14:39:18.571Z,0.67
2023-01-09T14:40:18.552Z,0.66
2023-01-09T14:41:18.686Z,0.66
2023-01-09T14:42:18.497Z,0.64
2023-01-09T14:43:18.461Z,0.65
2023-01-09T14:44:18.436Z,0.64
2023-01-09T14:45:18.417Z,0.65
2023-01-09T14:46:18.778Z,0.64
2023-01-09T14:47:18.361Z,0.64
2023-01-09T14:48:18.339Z,0.64
2023-01-09T14:49:18.304Z,0.63
2023-01-09T14:50:18.276Z,0.62
2023-01-09T14:51:18.685Z,0.62
2023-01-09T14:52:18.219Z,0.62
2023-01-09T14:53:18.220Z,0.63
2023-01-09T14:54:18.159Z,0.61
2023-01-09T14:55:18.134Z,0.62
2023-01-09T14:56:18.192Z,0.64
2023-01-09T14:57:18.183Z,0.64
2023-01-09T14:58:18.066Z,0.63
2023-01-09T14:59:18.038Z,0.62
2023-01-09T15:00:18.008Z,0.65
2023-01-09T15:01:18.027Z,0.69
2023-01-09T15:02:18.064Z,0.71
2023-01-09T15:03:17.944Z,0.72
2023-01-09T15:04:17.917Z,0.71
2023-01-09T15:05:17.890Z,0.70
2023-01-09T15:06:17.862Z,0.70
2023-01-09T15:07:18.184Z,0.71
2023-01-09T15:08:17.818Z,0.70
2023-01-09T15:09:17.805Z,0.70
2023-01-09T15:10:17.773Z,0.71
2023-01-09T15:11:17.753Z,0.69
2023-01-09T15:12:18.186Z,0.69
2023-01-09T15:13:17.709Z,0.69
2023-01-09T15:14:17.693Z,0.69
2023-01-09T15:15:17.677Z,0.70
2023-01-09T15:16:17.710Z,0.70
2023-01-09T15:17:17.631Z,0.70
2023-01-09T15:18:17.627Z,0.69
2023-01-09T15:22:17.696Z,0.70
2023-01-09T15:25:19.330Z,0.70
2023-01-09T15:27:17.696Z,0.70
2023-01-09T15:32:17.699Z,0.68
2023-01-09T15:35:17.250Z,0.70
2023-01-09T15:36:17.695Z,0.67
2023-01-09T15:38:17.180Z,0.68
2023-01-09T15:39:17.158Z,0.69
2023-01-09T15:40:17.136Z,0.68
2023-01-09T15:42:17.090Z,0.69
2023-01-09T15:43:17.514Z,0.66
2023-01-09T15:44:17.528Z,0.68
2023-01-09T15:45:17.017Z,0.67
2023-01-09T15:46:17.204Z,0.68
2023-01-09T15:47:16.985Z,0.68
2023-01-09T15:48:17.202Z,0.67
2023-01-09T15:49:17.184Z,0.67
2023-01-09T15:50:16.945Z,0.67
2023-01-09T15:51:16.937Z,0.67
2023-01-09T15:52:16.946Z,0.65
2023-01-09T15:53:16.868Z,0.67
2023-01-09T15:54:16.842Z,0.66
2023-01-09T15:55:16.823Z,0.67
2023-01-09T15:56:16.797Z,0.65
2023-01-09T15:57:16.782Z,0.67
2023-01-09T15:58:16.750Z,0.65
2023-01-09T15:59:16.734Z,0.65
2023-01-09T16:00:16.726Z,0.66
2023-01-09T16:01:16.843Z,0.66
2023-01-09T16:02:16.688Z,0.65
2023-01-09T16:03:16.649Z,0.65
2023-01-09T16:04:16.629Z,0.65
2023-01-09T16:05:16.616Z,0.65
2023-01-09T16:06:16.615Z,0.65
2023-01-09T16:07:16.562Z,0.64
2023-01-09T16:08:16.714Z,0.64
2023-01-09T16:09:16.606Z,0.64
2023-01-09T16:10:16.502Z,0.64
2023-01-09T16:11:16.473Z,0.64
2023-01-09T16:12:16.456Z,0.63
2023-01-09T16:13:16.435Z,0.64
2023-01-09T16:14:16.403Z,0.64
2023-01-09T16:15:16.386Z,0.64
2023-01-09T16:16:16.383Z,0.64
2023-01-09T16:17:16.332Z,0.64
2023-01-09T16:18:16.299Z,0.64
2023-01-09T16:19:16.272Z,0.64
2023-01-09T16:20:16.260Z,0.63
2023-01-09T16:21:16.231Z,0.62
2023-01-09T16:22:16.223Z,0.62
2023-01-09T16:23:16.215Z,0.63
2023-01-09T16:24:16.163Z,0.63
2023-01-09T16:25:16.136Z,0.62
2023-01-09T16:26:16.111Z,0.61
2023-01-09T16:27:16.097Z,0.62
2023-01-09T16:29:15.071Z,0.63
2023-01-09T16:30:16.020Z,0.62
2023-01-09T16:31:15.996Z,0.62
2023-01-09T16:32:15.983Z,0.62
2023-01-09T16:33:15.955Z,0.62
2023-01-09T16:34:15.937Z,0.63
2023-01-09T16:35:15.911Z,0.60
2023-01-09T16:36:15.890Z,0.61
2023-01-09T16:37:15.940Z,0.61
2023-01-09T16:38:15.923Z,0.61
2023-01-09T16:39:15.825Z,0.61
2023-01-09T16:40:15.829Z,0.61
2023-01-09T16:41:16.080Z,0.62
2023-01-09T16:42:14.748Z,0.62
2023-01-09T16:43:15.727Z,0.61
2023-01-09T16:44:15.702Z,0.61
2023-01-09T16:45:15.675Z,0.61
2023-01-09T16:46:15.723Z,0.60
2023-01-09T16:47:15.635Z,0.61
2023-01-09T16:48:15.596Z,0.60
2023-01-09T16:49:15.573Z,0.59
2023-01-09T16:50:15.584Z,0.59
2023-01-09T16:51:15.517Z,0.60
2023-01-09T16:52:15.500Z,0.60
2023-01-09T16:53:15.475Z,0.59
2023-01-09T16:54:15.482Z,0.60
2023-01-09T16:55:15.426Z,0.59
2023-01-09T16:56:15.400Z,0.59
2023-01-09T16:57:15.378Z,0.60
2023-01-09T16:58:18.299Z,0.59
2023-01-09T16:59:15.323Z,0.59